createdAt,value
2023-03-27T00:04:18.105Z,10.40
2023-03-27T00:09:21.842Z,10.50
2023-03-27T00:14:24.801Z,10.40
2023-03-27T00:19:27.850Z,10.40
2023-03-27T00:24:30.912Z,10.30
2023-03-27T00:29:34.550Z,10.20
2023-03-27T00:34:37.718Z,10.20
2023-03-27T00:39:41.831Z,10.10
2023-03-27T00:44:44.844Z,10.00
2023-03-27T00:49:50.354Z,10.00
2023-03-27T00:54:53.354Z,10.00
2023-03-27T00:59:58.094Z,10.00
2023-03-27T01:05:01.305Z,10.00
2023-03-27T01:10:08.804Z,9.90
2023-03-27T01:15:57.338Z,9.90
2023-03-27T01:21:38.075Z,9.90
2023-03-27T01:27:02.366Z,9.80
2023-03-27T01:32:59.602Z,9.80
2023-03-27T01:38:28.863Z,9.70
2023-03-27T01:43:42.641Z,9.60
2023-03-27T01:49:04.376Z,9.70
2023-03-27T01:54:15.521Z,9.60
2023-03-27T01:59:21.728Z,9.50
2023-03-27T02:04:33.769Z,9.40
2023-03-27T02:09:44.905Z,9.30
2023-03-27T02:14:57.623Z,9.30
2023-03-27T02:20:20.973Z,9.20
2023-03-27T02:25:36.978Z,9.20
2023-03-27T02:31:05.356Z,9.20
2023-03-27T02:36:37.221Z,9.20
2023-03-27T02:41:47.462Z,9.30
2023-03-27T02:47:09.300Z,9.20
2023-03-27T02:52:21.015Z,9.20
2023-03-27T02:57:28.039Z,9.20
2023-03-27T03:02:34.276Z,9.20
2023-03-27T03:07:38.273Z,9.10
2023-03-27T03:12:41.774Z,9.10
2023-03-27T03:17:45.523Z,9.00
2023-03-27T03:22:49.451Z,9.00
2023-03-27T03:27:58.275Z,9.00
2023-03-27T03:33:01.324Z,9.00
2023-03-27T03:38:07.599Z,9.00
2023-03-27T03:43:10.740Z,9.00
2023-03-27T03:48:13.782Z,9.10
2023-03-27T03:53:19.911Z,9.10
2023-03-27T03:58:34.333Z,9.20
2023-03-27T04:03:39.257Z,9.20
2023-03-27T04:08:42.809Z,9.10
2023-03-27T04:13:45.958Z,9.20
2023-03-27T04:18:50.702Z,9.20
2023-03-27T04:23:53.825Z,9.10
2023-03-27T04:28:56.862Z,9.10
2023-03-27T04:34:00.098Z,9.20
2023-03-27T04:39:03.879Z,9.10
2023-03-27T04:44:09.078Z,9.20
2023-03-27T04:49:12.538Z,9.20
2023-03-27T04:54:16.046Z,9.10
2023-03-27T04:59:18.975Z,9.10
2023-03-27T05:04:21.878Z,9.10
2023-03-27T05:09:26.449Z,9.10
2023-03-27T05:14:29.405Z,9.10
2023-03-27T05:19:32.319Z,9.10
2023-03-27T05:24:35.417Z,9.10
2023-03-27T05:29:47.292Z,9.00
2023-03-27T05:34:51.215Z,9.00
2023-03-27T05:39:54.257Z,9.00
2023-03-27T05:44:57.229Z,9.00
2023-03-27T05:50:00.577Z,8.90
2023-03-27T05:55:04.199Z,8.90
2023-03-27T06:00:14.057Z,8.80
2023-03-27T06:05:17.077Z,8.80
2023-03-27T06:10:20.702Z,8.80
2023-03-27T06:15:24.709Z,8.80
2023-03-27T06:20:28.156Z,8.80
2023-03-27T06:25:34.515Z,8.80
2023-03-27T06:30:39.010Z,8.80
2023-03-27T06:35:43.577Z,8.70
2023-03-27T06:40:56.447Z,8.70
2023-03-27T06:46:00.304Z,8.70
2023-03-27T06:51:03.249Z,8.60
2023-03-27T06:56:07.993Z,8.60
2023-03-27T07:01:11.604Z,8.60
2023-03-27T07:06:14.782Z,8.60
2023-03-27T07:11:18.444Z,8.70
2023-03-27T07:16:21.908Z,8.70
2023-03-27T07:21:24.948Z,8.70
2023-03-27T07:26:28.980Z,8.60
2023-03-27T07:31:51.567Z,8.60
2023-03-27T07:36:57.125Z,8.70
2023-03-27T07:42:00.275Z,8.70
2023-03-27T07:47:03.541Z,8.60
2023-03-27T07:52:06.982Z,8.60
2023-03-27T07:57:10.418Z,8.60
2023-03-27T08:02:13.845Z,8.60
2023-03-27T08:07:16.857Z,8.70
2023-03-27T08:12:19.821Z,8.70
2023-03-27T08:17:25.077Z,8.70
2023-03-27T08:22:28.676Z,8.70
2023-03-27T08:27:32.266Z,8.70
2023-03-27T08:32:35.310Z,8.70
2023-03-27T08:37:38.569Z,8.80
2023-03-27T08:42:43.973Z,8.90
2023-03-27T08:48:12.846Z,8.90
2023-03-27T08:54:00.711Z,8.90
2023-03-27T08:59:06.014Z,8.90
2023-03-27T09:04:32.468Z,8.90
2023-03-27T09:09:39.722Z,8.80
2023-03-27T09:15:15.469Z,8.80
2023-03-27T09:20:34.893Z,8.90
2023-03-27T09:25:51.475Z,8.80
2023-03-27T09:30:54.979Z,8.70
2023-03-27T09:35:59.307Z,8.70
2023-03-27T09:41:21.777Z,8.70
2023-03-27T09:46:27.351Z,8.60
2023-03-27T09:51:47.828Z,8.60
2023-03-27T09:56:53.267Z,8.60
2023-03-27T10:02:00.232Z,8.50
2023-03-27T10:07:08.229Z,8.50
2023-03-27T10:12:19.382Z,8.40
2023-03-27T10:17:35.450Z,8.30
2023-03-27T10:22:54.471Z,8.30
2023-03-27T10:28:10.910Z,8.20
2023-03-27T10:33:14.215Z,8.20
2023-03-27T10:38:18.259Z,8.30
2023-03-27T10:43:40.276Z,8.30
2023-03-27T10:48:52.196Z,8.30
2023-03-27T10:54:11.959Z,8.30
2023-03-27T10:59:28.231Z,8.30
2023-03-27T11:05:02.545Z,8.20
2023-03-27T11:10:31.845Z,8.20
2023-03-27T11:15:43.764Z,8.30
2023-03-27T11:21:00.707Z,8.40
2023-03-27T11:26:06.675Z,8.50
2023-03-27T11:31:51.486Z,8.60
2023-03-27T11:37:32.149Z,8.70
2023-03-27T11:42:42.668Z,8.80
2023-03-27T11:48:22.125Z,8.80
2023-03-27T11:53:53.006Z,9.00
2023-03-27T11:59:11.224Z,9.10
2023-03-27T12:04:20.174Z,9.20
2023-03-27T12:09:43.780Z,9.20
2023-03-27T12:14:52.239Z,9.30
2023-03-27T12:19:57.946Z,9.40
2023-03-27T12:25:37.826Z,9.50
2023-03-27T12:31:19.361Z,9.50
2023-03-27T12:36:24.794Z,9.60
2023-03-27T12:41:37.972Z,9.70
2023-03-27T12:46:42.622Z,9.70
2023-03-27T12:52:04.246Z,9.80
2023-03-27T12:57:15.531Z,9.60
2023-03-27T13:02:50.757Z,9.30
2023-03-27T13:08:10.320Z,9.00
2023-03-27T13:13:34.558Z,8.80
2023-03-27T13:19:34.320Z,8.70
2023-03-27T13:25:07.833Z,8.60
2023-03-27T13:30:41.341Z,8.40
2023-03-27T13:36:03.147Z,8.20
2023-03-27T13:41:36.861Z,7.90
2023-03-27T13:47:09.060Z,7.70
2023-03-27T13:52:32.030Z,7.50
2023-03-27T13:58:12.500Z,7.20
2023-03-27T14:03:37.190Z,6.90
2023-03-27T14:08:55.524Z,6.70
2023-03-27T14:14:59.153Z,6.50
2023-03-27T14:20:13.906Z,6.40
2023-03-27T14:25:21.404Z,6.30
2023-03-27T14:30:32.710Z,6.20
2023-03-27T14:35:44.138Z,6.20
2023-03-27T14:40:47.801Z,6.20
2023-03-27T14:45:54.501Z,6.20
2023-03-27T14:51:03.091Z,6.20
2023-03-27T14:56:37.406Z,6.10
2023-03-27T15:01:42.152Z,6.10
2023-03-27T15:06:45.854Z,6.10
2023-03-27T15:11:55.692Z,6.00
2023-03-27T15:17:17.812Z,5.90
2023-03-27T15:22:32.144Z,5.80
2023-03-27T15:27:41.424Z,5.60
2023-03-27T15:32:50.743Z,5.40
2023-03-27T15:37:54.258Z,5.40
2023-03-27T15:43:06.654Z,5.30
2023-03-27T15:48:23.244Z,5.30
2023-03-27T15:53:45.053Z,5.20
2023-03-27T15:59:05.120Z,5.20
2023-03-27T16:04:19.134Z,5.10
2023-03-27T16:09:50.972Z,5.10
2023-03-27T16:14:57.440Z,5.00
2023-03-27T16:20:22.227Z,5.00
2023-03-27T16:25:25.295Z,5.00
2023-03-27T16:30:39.134Z,5.00
2023-03-27T16:35:42.717Z,5.00
2023-03-27T16:40:46.721Z,5.00
2023-03-27T16:45:49.691Z,5.00
2023-03-27T16:50:52.636Z,5.00
2023-03-27T16:55:56.454Z,5.00
2023-03-27T17:00:59.660Z,5.00
2023-03-27T17:06:05.935Z,5.00
2023-03-27T17:11:13.015Z,5.10
2023-03-27T17:16:16.440Z,5.10
2023-03-27T17:21:19.559Z,5.10
2023-03-27T17:26:32.893Z,5.10
2023-03-27T17:31:36.135Z,5.00
2023-03-27T17:36:45.224Z,5.00
2023-03-27T17:41:55.544Z,5.00
2023-03-27T17:46:58.574Z,5.00
2023-03-27T17:52:07.671Z,4.90
2023-03-27T17:57:10.833Z,4.80
2023-03-27T18:02:19.730Z,4.80
2023-03-27T18:07:23.769Z,4.70
2023-03-27T18:12:26.781Z,4.60
2023-03-27T18:17:29.644Z,4.50
2023-03-27T18:22:32.651Z,4.40
2023-03-27T18:27:40.513Z,4.30
2023-03-27T18:32:45.541Z,4.30
2023-03-27T18:37:48.659Z,4.20
2023-03-27T18:42:51.740Z,4.20
2023-03-27T18:47:54.974Z,4.20
2023-03-27T18:52:57.816Z,4.20
2023-03-27T18:58:03.399Z,4.20
2023-03-27T19:03:06.847Z,4.10
2023-03-27T19:08:10.317Z,4.10
2023-03-27T19:13:13.797Z,4.10
2023-03-27T19:18:17.651Z,4.00
2023-03-27T19:23:20.864Z,4.00
2023-03-27T19:28:23.915Z,3.90
2023-03-27T19:33:28.116Z,3.80
2023-03-27T19:38:31.186Z,3.80
2023-03-27T19:43:34.720Z,3.80
2023-03-27T19:48:38.062Z,3.80
2023-03-27T19:53:41.914Z,3.70
2023-03-27T19:58:44.875Z,3.70
2023-03-27T20:03:48.024Z,3.70
2023-03-27T20:08:57.718Z,3.70
2023-03-27T20:14:00.960Z,3.70
2023-03-27T20:19:04.898Z,3.70
2023-03-27T20:24:11.503Z,3.70
2023-03-27T20:29:18.961Z,3.70
2023-03-27T20:34:22.777Z,3.70
2023-03-27T20:39:27.289Z,3.70
2023-03-27T20:44:36.016Z,3.60
2023-03-27T20:49:42.888Z,3.60
2023-03-27T20:54:48.500Z,3.50
2023-03-27T20:59:52.790Z,3.50
2023-03-27T21:04:56.020Z,3.50
2023-03-27T21:09:59.032Z,3.40
2023-03-27T21:15:02.599Z,3.40
2023-03-27T21:20:06.508Z,3.40
2023-03-27T21:25:09.866Z,3.40
2023-03-27T21:30:14.233Z,3.40
2023-03-27T21:35:18.562Z,3.40
2023-03-27T21:40:21.692Z,3.40
2023-03-27T21:45:24.617Z,3.50
2023-03-27T21:50:27.825Z,3.40
2023-03-27T21:55:30.841Z,3.40
2023-03-27T22:00:34.112Z,3.40
2023-03-27T22:05:38.726Z,3.40
2023-03-27T22:10:41.768Z,3.30
2023-03-27T22:15:44.791Z,3.30
2023-03-27T22:20:47.800Z,3.30
2023-03-27T22:25:54.881Z,3.30
2023-03-27T22:30:57.790Z,3.20
2023-03-27T22:36:01.311Z,3.20
2023-03-27T22:41:10.284Z,3.30
2023-03-27T22:46:21.456Z,3.30
2023-03-27T22:51:27.514Z,3.30
2023-03-27T22:56:30.756Z,3.20
2023-03-27T23:01:33.688Z,3.20
2023-03-27T23:06:36.694Z,3.20
2023-03-27T23:11:39.883Z,3.10
2023-03-27T23:16:43.406Z,3.10
2023-03-27T23:21:46.385Z,3.00
2023-03-27T23:26:49.336Z,3.00
2023-03-27T23:31:52.395Z,3.00
2023-03-27T23:36:55.461Z,2.90
2023-03-27T23:41:58.422Z,2.90
2023-03-27T23:47:01.406Z,2.80
2023-03-27T23:52:04.407Z,2.80
2023-03-27T23:57:07.457Z,2.80
